createdAt,value
2023-03-05T00:04:27.114Z,49.10
2023-03-05T00:09:39.929Z,59.30
2023-03-05T00:14:52.815Z,52.90
2023-03-05T00:20:07.729Z,55.37
2023-03-05T00:25:20.703Z,54.40
2023-03-05T00:30:33.646Z,49.37
2023-03-05T00:35:48.033Z,62.47
2023-03-05T00:41:00.931Z,49.93
2023-03-05T00:46:13.886Z,54.70
2023-03-05T00:51:28.378Z,53.00
2023-03-05T00:56:41.286Z,54.27
2023-03-05T01:01:54.283Z,55.27
2023-03-05T01:07:08.537Z,55.97
2023-03-05T01:12:21.412Z,48.67
2023-03-05T01:17:34.522Z,55.40
2023-03-05T01:22:48.787Z,49.17
2023-03-05T01:28:01.665Z,50.07
2023-03-05T01:33:14.572Z,50.77
2023-03-05T01:38:29.133Z,47.93
2023-03-05T01:43:42.567Z,50.50
2023-03-05T01:48:57.300Z,48.83
2023-03-05T01:54:12.741Z,46.90
2023-03-05T01:59:26.328Z,48.13
2023-03-05T02:04:42.034Z,45.17
2023-03-05T02:09:56.256Z,45.97
2023-03-05T02:15:09.713Z,47.77
2023-03-05T02:20:23.398Z,46.17
2023-03-05T02:25:37.646Z,43.50
2023-03-05T02:30:50.800Z,50.27
2023-03-05T02:36:03.760Z,48.87
2023-03-05T02:41:18.529Z,51.97
2023-03-05T02:46:32.306Z,55.27
2023-03-05T02:51:45.324Z,51.73
2023-03-05T02:56:59.734Z,47.40
2023-03-05T03:02:13.367Z,61.23
2023-03-05T03:07:26.221Z,56.33
2023-03-05T03:12:41.052Z,49.70
2023-03-05T03:17:54.980Z,45.43
2023-03-05T03:23:08.376Z,39.50
2023-03-05T03:28:22.578Z,53.57
2023-03-05T03:33:35.447Z,46.50
2023-03-05T03:38:48.278Z,43.17
2023-03-05T03:44:03.222Z,43.40
2023-03-05T03:49:16.882Z,51.37
2023-03-05T03:54:29.801Z,54.47
2023-03-05T03:59:45.434Z,52.63
2023-03-05T04:04:58.306Z,59.90
2023-03-05T04:10:12.255Z,61.47
2023-03-05T04:15:26.425Z,56.83
2023-03-05T04:20:39.252Z,56.70
2023-03-05T04:25:52.129Z,63.57
2023-03-05T04:31:06.575Z,64.30
2023-03-05T04:36:19.419Z,58.10
2023-03-05T04:41:32.261Z,61.23
2023-03-05T04:46:46.703Z,62.60
2023-03-05T04:51:59.566Z,63.63
2023-03-05T04:57:12.424Z,59.43
2023-03-05T05:02:26.678Z,59.77
2023-03-05T05:07:39.568Z,60.80
2023-03-05T05:12:52.398Z,53.43
2023-03-05T05:18:06.622Z,61.60
2023-03-05T05:23:19.462Z,56.60
2023-03-05T05:28:32.314Z,54.07
2023-03-05T05:33:49.579Z,61.90
2023-03-05T05:39:02.701Z,55.13
2023-03-05T05:44:15.534Z,57.77
2023-03-05T05:49:29.704Z,59.53
2023-03-05T05:54:42.565Z,61.43
2023-03-05T05:59:55.383Z,57.27
2023-03-05T06:05:10.522Z,59.80
2023-03-05T06:10:23.358Z,65.57
2023-03-05T06:15:36.213Z,65.17
2023-03-05T06:20:56.010Z,64.57
2023-03-05T06:26:09.287Z,64.70
2023-03-05T06:31:23.004Z,66.03
2023-03-05T06:36:37.196Z,60.83
2023-03-05T06:41:51.757Z,65.70
2023-03-05T06:47:05.913Z,61.63
2023-03-05T06:52:20.110Z,65.77
2023-03-05T06:57:32.946Z,62.73
2023-03-05T07:02:45.794Z,63.93
2023-03-05T07:07:59.992Z,63.93
2023-03-05T07:13:12.871Z,60.10
2023-03-05T07:18:25.731Z,67.07
2023-03-05T07:23:39.931Z,82.30
2023-03-05T07:28:53.066Z,68.73
2023-03-05T07:34:06.554Z,62.03
2023-03-05T07:39:20.784Z,67.90
2023-03-05T07:44:33.600Z,64.43
2023-03-05T07:49:46.431Z,60.53
2023-03-05T07:55:00.648Z,51.97
2023-03-05T08:00:14.049Z,53.83
2023-03-05T08:05:28.227Z,59.47
2023-03-05T08:10:42.443Z,57.50
2023-03-05T08:15:55.323Z,60.67
2023-03-05T08:21:08.204Z,64.30
2023-03-05T08:26:23.344Z,61.23
2023-03-05T08:31:36.580Z,52.47
2023-03-05T08:36:50.191Z,62.00
2023-03-05T08:42:04.503Z,61.10
2023-03-05T08:47:18.194Z,52.60
2023-03-05T08:52:31.018Z,78.80
2023-03-05T08:57:45.175Z,64.50
2023-03-05T09:02:58.194Z,63.47
2023-03-05T09:08:11.166Z,65.53
2023-03-05T09:13:25.365Z,59.53
2023-03-05T09:18:40.109Z,57.90
2023-03-05T09:23:53.018Z,54.63
2023-03-05T09:29:08.524Z,51.97
2023-03-05T09:34:21.464Z,65.10
2023-03-05T09:39:34.317Z,60.03
2023-03-05T09:44:52.814Z,53.70
2023-03-05T09:50:10.522Z,61.47
2023-03-05T09:55:26.386Z,56.90
2023-03-05T10:00:42.515Z,55.77
2023-03-05T10:05:59.309Z,47.77
2023-03-05T10:11:17.255Z,46.70
2023-03-05T10:16:43.785Z,46.50
2023-03-05T10:22:01.362Z,52.80
2023-03-05T10:26:58.721Z,54.80
2023-03-05T10:31:56.595Z,51.37
2023-03-05T10:36:58.088Z,49.13
2023-03-05T10:42:02.326Z,50.13
2023-03-05T10:46:57.734Z,56.07
2023-03-05T10:51:53.412Z,46.77
2023-03-05T10:56:45.970Z,75.23
2023-03-05T11:01:38.597Z,45.90
2023-03-05T11:06:37.796Z,37.47
2023-03-05T11:11:31.303Z,42.87
2023-03-05T11:16:25.008Z,44.87
2023-03-05T11:21:23.912Z,47.47
2023-03-05T11:26:20.528Z,42.67
2023-03-05T11:31:21.682Z,39.13
2023-03-05T11:36:24.428Z,35.87
2023-03-05T11:41:17.677Z,37.50
2023-03-05T11:46:19.828Z,39.90
2023-03-05T11:51:17.394Z,37.83
2023-03-05T11:56:17.422Z,39.10
2023-03-05T12:01:15.312Z,43.57
2023-03-05T12:06:15.050Z,36.90
2023-03-05T12:11:10.474Z,40.20
2023-03-05T12:16:06.727Z,38.33
2023-03-05T12:21:03.715Z,36.07
2023-03-05T12:25:59.337Z,40.00
2023-03-05T12:30:57.429Z,35.43
2023-03-05T12:35:50.136Z,36.10
2023-03-05T12:40:42.992Z,36.13
2023-03-05T12:45:39.297Z,35.37
2023-03-05T12:50:52.648Z,34.90
2023-03-05T12:55:50.816Z,40.00
2023-03-05T13:00:45.918Z,39.50
2023-03-05T13:05:39.714Z,50.13
2023-03-05T13:10:32.344Z,33.93
2023-03-05T13:15:25.940Z,35.20
2023-03-05T13:20:27.896Z,32.67
2023-03-05T13:25:20.972Z,33.20
2023-03-05T13:30:24.641Z,31.70
2023-03-05T13:35:17.347Z,38.67
2023-03-05T13:40:19.485Z,34.87
2023-03-05T13:45:21.932Z,36.40
2023-03-05T13:50:23.515Z,31.27
2023-03-05T13:55:19.272Z,32.57
2023-03-05T14:00:26.351Z,32.37
2023-03-05T14:05:19.805Z,32.50
2023-03-05T14:10:28.574Z,34.47
2023-03-05T14:15:22.391Z,33.20
2023-03-05T14:20:21.516Z,38.37
2023-03-05T14:25:27.668Z,30.93
2023-03-05T14:30:21.455Z,35.90
2023-03-05T14:35:18.836Z,35.63
2023-03-05T14:40:19.751Z,37.50
2023-03-05T14:45:15.683Z,38.87
2023-03-05T14:50:08.846Z,37.23
2023-03-05T14:55:01.620Z,36.60
2023-03-05T14:59:55.573Z,40.70
2023-03-05T15:04:49.566Z,36.47
2023-03-05T15:09:42.216Z,40.63
2023-03-05T15:14:34.847Z,36.60
2023-03-05T15:19:27.414Z,36.40
2023-03-05T15:24:21.353Z,42.20
2023-03-05T15:29:13.980Z,40.30
2023-03-05T15:34:06.556Z,34.50
2023-03-05T15:38:59.216Z,42.60
2023-03-05T15:43:53.359Z,36.80
2023-03-05T15:48:49.910Z,37.63
2023-03-05T15:53:42.605Z,39.60
2023-03-05T15:58:35.279Z,37.43
2023-03-05T16:03:29.288Z,34.23
2023-03-05T16:08:21.965Z,37.67
2023-03-05T16:13:15.949Z,38.27
2023-03-05T16:18:11.414Z,34.50
2023-03-05T16:23:05.993Z,34.53
2023-03-05T16:27:58.689Z,35.17
2023-03-05T16:32:53.626Z,38.63
2023-03-05T16:37:46.460Z,40.07
2023-03-05T16:42:40.461Z,36.83
2023-03-05T16:47:33.068Z,36.93
2023-03-05T16:52:25.636Z,36.53
2023-03-05T16:57:18.253Z,34.87
2023-03-05T17:02:13.218Z,37.27
2023-03-05T17:07:05.928Z,39.00
2023-03-05T17:11:58.551Z,40.90
2023-03-05T17:16:51.217Z,39.70
2023-03-05T17:21:45.316Z,46.60
2023-03-05T17:26:38.116Z,40.57
2023-03-05T17:31:30.696Z,37.90
2023-03-05T17:36:23.642Z,37.03
2023-03-05T17:41:18.132Z,42.97
2023-03-05T17:46:10.766Z,35.70
2023-03-05T17:51:03.540Z,37.23
2023-03-05T17:55:56.208Z,40.77
2023-03-05T18:00:50.215Z,39.43
2023-03-05T18:05:42.844Z,40.83
2023-03-05T18:10:35.706Z,36.60
2023-03-05T18:15:28.969Z,53.43
2023-03-05T18:20:26.316Z,38.63
2023-03-05T18:25:18.904Z,41.37
2023-03-05T18:30:12.269Z,39.77
2023-03-05T18:35:05.093Z,39.53
2023-03-05T18:39:59.126Z,40.50
2023-03-05T18:44:51.783Z,67.67
2023-03-05T18:49:44.442Z,43.87
2023-03-05T18:54:37.112Z,64.80
2023-03-05T18:59:31.819Z,57.10
2023-03-05T19:04:24.450Z,94.33
2023-03-05T19:09:28.790Z,60.30
2023-03-05T19:14:21.402Z,47.80
2023-03-05T19:19:16.567Z,46.40
2023-03-05T19:24:09.439Z,45.50
2023-03-05T19:29:03.705Z,40.10
2023-03-05T19:33:56.465Z,38.23
2023-03-05T19:38:50.368Z,42.00
2023-03-05T19:43:43.231Z,41.97
2023-03-05T19:48:36.446Z,45.47
2023-03-05T19:53:29.059Z,40.87
2023-03-05T19:58:22.933Z,48.53
2023-03-05T20:03:15.476Z,37.93
2023-03-05T20:08:08.048Z,41.10
2023-03-05T20:13:00.619Z,38.70
2023-03-05T20:17:54.665Z,41.93
2023-03-05T20:22:47.737Z,38.03
2023-03-05T20:27:40.747Z,37.80
2023-03-05T20:32:33.495Z,35.53
2023-03-05T20:37:36.016Z,35.67
2023-03-05T20:42:28.826Z,35.80
2023-03-05T20:47:32.278Z,35.20
2023-03-05T20:52:25.063Z,41.33
2023-03-05T20:57:19.144Z,38.73
2023-03-05T21:02:12.030Z,37.93
2023-03-05T21:07:05.058Z,43.17
2023-03-05T21:11:57.649Z,40.60
2023-03-05T21:16:51.588Z,37.63
2023-03-05T21:21:45.755Z,49.73
2023-03-05T21:26:38.786Z,40.90
2023-03-05T21:31:31.537Z,38.70
2023-03-05T21:36:25.597Z,40.67
2023-03-05T21:41:20.512Z,37.47
2023-03-05T21:46:13.246Z,37.00
2023-03-05T21:51:07.837Z,34.17
2023-03-05T21:56:10.933Z,35.90
2023-03-05T22:01:03.775Z,32.93
2023-03-05T22:05:56.650Z,35.87
2023-03-05T22:10:49.495Z,35.67
2023-03-05T22:15:44.502Z,35.13
2023-03-05T22:20:37.220Z,40.50
2023-03-05T22:25:30.123Z,32.03
2023-03-05T22:30:23.140Z,39.50
2023-03-05T22:35:17.811Z,33.40
2023-03-05T22:40:14.727Z,34.13
2023-03-05T22:45:08.098Z,34.03
2023-03-05T22:50:01.101Z,34.50
2023-03-05T22:54:56.101Z,32.60
2023-03-05T22:59:49.781Z,32.47
2023-03-05T23:04:49.501Z,32.93
2023-03-05T23:09:42.244Z,35.87
2023-03-05T23:14:36.304Z,37.70
2023-03-05T23:19:28.959Z,33.17
2023-03-05T23:24:21.621Z,34.17
2023-03-05T23:29:14.264Z,37.07
2023-03-05T23:34:08.277Z,37.50
2023-03-05T23:39:00.898Z,34.60
2023-03-05T23:43:53.475Z,38.33
2023-03-05T23:48:46.263Z,43.47
2023-03-05T23:53:40.367Z,40.97
2023-03-05T23:58:33.133Z,43.70
